createdAt,value
2018-07-11T00:00:21.586Z,24.40
2018-07-11T00:02:50.967Z,24.40
2018-07-11T00:05:19.475Z,24.40
2018-07-11T00:07:47.981Z,24.30
2018-07-11T00:10:16.367Z,24.40
2018-07-11T00:12:44.721Z,24.30
2018-07-11T00:20:09.415Z,24.40
2018-07-11T00:22:37.883Z,24.40
2018-07-11T00:25:06.254Z,24.40
2018-07-11T00:27:34.589Z,24.40
2018-07-11T00:30:03.046Z,24.40
2018-07-11T00:32:31.401Z,24.40
2018-07-11T00:34:59.767Z,24.40
2018-07-11T00:37:28.436Z,24.40
2018-07-11T00:39:56.777Z,24.50
2018-07-11T00:42:25.701Z,24.50
2018-07-11T00:44:54.114Z,24.50
2018-07-11T00:47:22.543Z,24.50
2018-07-11T00:49:50.865Z,24.50
2018-07-11T00:52:19.466Z,24.50
2018-07-11T00:54:47.896Z,24.40
2018-07-11T00:57:17.186Z,24.40
2018-07-11T00:59:45.603Z,24.40
2018-07-11T01:02:14.462Z,24.30
2018-07-11T01:04:42.782Z,24.20
2018-07-11T01:07:11.527Z,24.20
2018-07-11T01:09:44.624Z,24.20
2018-07-11T01:12:12.989Z,24.20
2018-07-11T01:14:41.366Z,24.20
2018-07-11T01:18:16.024Z,24.30
2018-07-11T01:20:45.446Z,24.20
2018-07-11T01:23:13.810Z,24.30
2018-07-11T01:25:42.338Z,24.30
2018-07-11T01:28:11.285Z,24.30
2018-07-11T01:30:39.630Z,24.30
2018-07-11T01:33:08.048Z,24.30
2018-07-11T01:35:36.450Z,24.30
2018-07-11T01:38:04.836Z,24.30
2018-07-11T01:40:33.728Z,24.30
2018-07-11T01:43:02.172Z,24.30
2018-07-11T01:45:30.605Z,24.30
2018-07-11T01:47:59.035Z,24.30
2018-07-11T01:50:27.464Z,24.20
2018-07-11T01:52:57.557Z,24.30
2018-07-11T01:55:26.579Z,24.30
2018-07-11T01:57:58.564Z,24.40
2018-07-11T02:00:27.711Z,24.30
2018-07-11T02:02:56.134Z,24.30
2018-07-11T02:05:25.809Z,24.30
2018-07-11T02:07:54.748Z,24.30
2018-07-11T02:10:23.686Z,24.30
2018-07-11T02:12:52.190Z,24.30
2018-07-11T02:15:20.588Z,24.20
2018-07-11T02:17:49.022Z,24.30
2018-07-11T02:20:18.183Z,24.30
2018-07-11T02:22:50.466Z,24.40
2018-07-11T02:25:19.704Z,24.40
2018-07-11T02:30:16.577Z,24.40
2018-07-11T02:32:44.976Z,24.40
2018-07-11T02:35:13.590Z,24.40
2018-07-11T02:37:41.952Z,24.40
2018-07-11T02:40:10.284Z,24.40
2018-07-11T02:42:38.655Z,24.40
2018-07-11T02:47:40.558Z,24.30
2018-07-11T02:50:08.980Z,24.30
2018-07-11T02:52:37.465Z,24.30
2018-07-11T02:55:06.384Z,24.30
2018-07-11T02:57:34.826Z,24.20
2018-07-11T03:00:03.259Z,24.20
2018-07-11T03:02:31.632Z,24.20
2018-07-11T03:05:00.050Z,24.20
2018-07-11T03:07:28.728Z,24.10
2018-07-11T03:09:57.152Z,24.10
2018-07-11T03:12:25.567Z,24.20
2018-07-11T03:14:53.936Z,24.20
2018-07-11T03:19:50.459Z,24.10
2018-07-11T03:22:18.970Z,24.10
2018-07-11T03:24:47.341Z,24.10
2018-07-11T03:27:15.935Z,24.10
2018-07-11T03:29:44.269Z,24.10
2018-07-11T03:32:12.600Z,24.10
2018-07-11T03:34:40.962Z,24.10
2018-07-11T03:37:09.389Z,24.20
2018-07-11T03:39:39.107Z,24.20
2018-07-11T03:42:07.672Z,24.20
2018-07-11T03:44:36.078Z,24.20
2018-07-11T03:47:04.638Z,24.20
2018-07-11T03:49:33.120Z,24.10
2018-07-11T03:52:01.508Z,24.00
2018-07-11T03:54:29.840Z,24.00
2018-07-11T03:56:58.283Z,24.00
2018-07-11T03:59:26.709Z,24.00
2018-07-11T04:04:23.173Z,24.00
2018-07-11T04:06:51.568Z,24.00
2018-07-11T04:09:20.065Z,24.00
2018-07-11T04:11:48.492Z,24.00
2018-07-11T04:14:16.958Z,24.00
2018-07-11T04:16:45.294Z,24.00
2018-07-11T04:19:13.805Z,24.00
2018-07-11T04:21:42.114Z,24.00
2018-07-11T04:24:10.450Z,23.90
2018-07-11T04:26:38.882Z,23.90
2018-07-11T04:31:35.829Z,23.80
2018-07-11T04:34:04.301Z,23.80
2018-07-11T04:36:32.724Z,23.80
2018-07-11T04:39:01.208Z,23.70
2018-07-11T04:41:29.770Z,23.70
2018-07-11T04:43:58.195Z,23.70
2018-07-11T04:46:26.554Z,23.60
2018-07-11T04:48:54.950Z,23.60
2018-07-11T04:51:23.336Z,23.60
2018-07-11T04:53:51.890Z,23.50
2018-07-11T04:56:20.262Z,23.50
2018-07-11T04:58:48.792Z,23.60
2018-07-11T05:01:17.172Z,23.60
2018-07-11T05:03:45.548Z,23.50
2018-07-11T05:06:14.132Z,23.40
2018-07-11T05:08:42.619Z,23.50
2018-07-11T05:11:11.227Z,23.50
2018-07-11T05:13:39.606Z,23.40
2018-07-11T05:16:07.997Z,23.40
2018-07-11T05:18:36.412Z,23.40
2018-07-11T05:21:04.895Z,23.40
2018-07-11T05:23:33.355Z,23.40
2018-07-11T05:26:01.837Z,23.40
2018-07-11T05:28:30.311Z,23.40
2018-07-11T05:30:58.666Z,23.40
2018-07-11T05:33:27.050Z,23.40
2018-07-11T05:35:55.537Z,23.40
2018-07-11T05:38:24.076Z,23.40
2018-07-11T05:40:52.462Z,23.30
2018-07-11T05:43:21.175Z,23.20
2018-07-11T05:45:49.919Z,23.20
2018-07-11T05:48:18.397Z,23.20
2018-07-11T05:50:46.745Z,23.10
2018-07-11T05:53:15.249Z,22.90
2018-07-11T05:55:43.740Z,23.00
2018-07-11T05:58:12.170Z,23.00
2018-07-11T06:00:40.598Z,23.20
2018-07-11T06:03:09.621Z,23.30
2018-07-11T06:05:38.054Z,23.50
2018-07-11T06:08:06.631Z,23.60
2018-07-11T06:10:35.731Z,23.70
2018-07-11T06:13:04.504Z,23.80
2018-07-11T06:15:32.956Z,23.80
2018-07-11T06:18:02.335Z,23.90
2018-07-11T06:20:30.808Z,24.00
2018-07-11T06:22:59.220Z,24.00
2018-07-11T06:25:27.771Z,24.10
2018-07-11T06:27:56.215Z,24.20
2018-07-11T06:30:24.627Z,24.20
2018-07-11T06:32:53.073Z,24.20
2018-07-11T06:35:21.576Z,24.30
2018-07-11T06:37:49.912Z,24.30
2018-07-11T06:42:46.369Z,24.40
2018-07-11T06:45:14.777Z,24.40
2018-07-11T06:47:43.319Z,24.40
2018-07-11T06:50:11.736Z,24.40
2018-07-11T06:52:40.129Z,24.50
2018-07-11T06:55:08.725Z,24.50
2018-07-11T06:57:37.172Z,24.40
2018-07-11T07:00:05.639Z,24.50
2018-07-11T07:02:34.028Z,24.50
2018-07-11T07:05:02.450Z,24.50
2018-07-11T07:07:30.828Z,24.50
2018-07-11T07:09:59.216Z,24.50
2018-07-11T07:12:27.593Z,24.50
2018-07-11T07:14:56.084Z,24.50
2018-07-11T07:17:24.529Z,24.50
2018-07-11T07:19:52.945Z,24.50
2018-07-11T07:22:21.299Z,24.50
2018-07-11T07:24:49.674Z,24.50
2018-07-11T07:27:18.103Z,24.60
2018-07-11T07:29:46.525Z,24.60
2018-07-11T07:32:15.058Z,24.60
2018-07-11T07:34:43.462Z,24.60
2018-07-11T07:37:11.834Z,24.60
2018-07-11T07:39:40.229Z,24.60
2018-07-11T07:42:08.602Z,24.60
2018-07-11T07:44:36.949Z,24.60
2018-07-11T07:49:33.612Z,24.60
2018-07-11T07:52:01.970Z,24.70
2018-07-11T07:54:30.371Z,24.70
2018-07-11T07:56:58.720Z,24.70
2018-07-11T07:59:27.240Z,24.70
2018-07-11T08:01:56.328Z,24.70
2018-07-11T08:04:24.745Z,24.70
2018-07-11T08:06:53.307Z,24.70
2018-07-11T08:09:21.649Z,24.70
2018-07-11T08:14:18.634Z,24.70
2018-07-11T08:16:47.199Z,24.70
2018-07-11T08:19:15.854Z,24.70
2018-07-11T08:21:44.293Z,24.70
2018-07-11T08:24:24.016Z,24.80
2018-07-11T08:29:05.498Z,24.70
2018-07-11T08:31:45.819Z,24.80
2018-07-11T08:34:24.713Z,24.80
2018-07-11T08:37:23.576Z,24.80
2018-07-11T08:42:21.972Z,24.80
2018-07-11T08:47:07.810Z,24.80
2018-07-11T08:50:47.166Z,24.70
2018-07-11T08:55:29.896Z,24.70
2018-07-11T08:58:14.754Z,24.70
2018-07-11T09:00:54.009Z,24.70
2018-07-11T09:03:46.057Z,24.70
2018-07-11T09:06:28.325Z,24.70
2018-07-11T09:09:39.761Z,24.70
2018-07-11T09:13:51.246Z,24.70
2018-07-11T09:16:37.229Z,24.70
2018-07-11T09:19:23.136Z,24.70
2018-07-11T09:22:31.717Z,24.60
2018-07-11T09:25:00.144Z,24.60
2018-07-11T09:27:28.504Z,24.60
2018-07-11T09:29:56.947Z,24.70
2018-07-11T09:32:25.307Z,24.60
2018-07-11T09:34:53.719Z,24.70
2018-07-11T09:37:22.055Z,24.70
2018-07-11T09:39:50.366Z,24.60
2018-07-11T09:42:18.835Z,24.70
2018-07-11T09:44:47.305Z,24.70
2018-07-11T09:47:21.146Z,24.70
2018-07-11T09:49:49.506Z,24.70
2018-07-11T09:52:18.068Z,24.80
2018-07-11T09:54:46.469Z,24.80
2018-07-11T09:57:14.855Z,24.80
2018-07-11T09:59:43.360Z,24.80
2018-07-11T10:02:11.826Z,24.80
2018-07-11T10:04:40.225Z,24.80
2018-07-11T10:09:43.317Z,24.80
2018-07-11T10:12:11.785Z,24.80
2018-07-11T10:14:40.094Z,24.80
2018-07-11T10:17:08.572Z,24.80
2018-07-11T10:19:36.992Z,24.80
2018-07-11T10:22:05.492Z,24.80
2018-07-11T10:24:33.924Z,24.90
2018-07-11T10:27:02.664Z,24.90
2018-07-11T10:29:31.088Z,24.90
2018-07-11T10:31:59.428Z,24.90
2018-07-11T10:34:27.836Z,24.90
2018-07-11T10:36:56.247Z,24.90
2018-07-11T10:39:24.742Z,24.90
2018-07-11T10:41:53.228Z,24.90
2018-07-11T10:44:21.584Z,24.90
2018-07-11T10:46:55.353Z,24.90
2018-07-11T10:49:24.585Z,24.90
2018-07-11T10:51:53.766Z,24.90
2018-07-11T10:56:50.840Z,24.80
2018-07-11T10:59:19.179Z,24.80
2018-07-11T11:01:47.666Z,24.80
2018-07-11T11:04:19.294Z,24.80
2018-07-11T11:06:47.684Z,24.80
2018-07-11T11:09:16.200Z,24.80
2018-07-11T11:11:44.667Z,24.80
2018-07-11T11:14:13.246Z,24.80
2018-07-11T11:16:41.623Z,24.80
2018-07-11T11:19:10.056Z,24.80
2018-07-11T11:21:38.430Z,24.80
2018-07-11T11:26:35.322Z,24.80
2018-07-11T11:29:03.812Z,24.80
2018-07-11T11:31:32.175Z,24.80
2018-07-11T11:34:00.802Z,24.80
2018-07-11T11:36:29.422Z,24.80
2018-07-11T11:38:57.818Z,24.80
2018-07-11T11:41:26.330Z,24.80
2018-07-11T11:43:54.723Z,24.80
2018-07-11T11:46:23.252Z,24.70
2018-07-11T11:48:51.671Z,24.70
2018-07-11T11:51:20.155Z,24.70
2018-07-11T11:53:48.608Z,24.60
2018-07-11T11:56:17.206Z,24.80
2018-07-11T11:58:45.592Z,24.70
2018-07-11T12:01:13.984Z,24.70
2018-07-11T12:03:42.383Z,24.70
2018-07-11T12:06:10.844Z,24.70
2018-07-11T12:08:39.265Z,24.70
2018-07-11T12:11:07.810Z,24.70
2018-07-11T12:13:36.240Z,24.70
2018-07-11T12:16:05.801Z,24.70
2018-07-11T12:18:34.297Z,24.70
2018-07-11T12:21:02.683Z,24.70
2018-07-11T12:23:31.075Z,24.70
2018-07-11T12:26:10.986Z,24.70
2018-07-11T12:28:39.422Z,24.70
2018-07-11T12:31:07.831Z,24.70
2018-07-11T12:33:36.194Z,24.70
2018-07-11T12:36:04.664Z,24.70
2018-07-11T12:38:33.823Z,24.70
2018-07-11T12:41:02.347Z,24.70
2018-07-11T12:43:30.968Z,24.70
2018-07-11T12:45:59.369Z,24.70
2018-07-11T12:48:33.287Z,24.70
2018-07-11T12:51:01.735Z,24.70
2018-07-11T12:53:30.248Z,24.70
2018-07-11T12:55:58.990Z,24.70
2018-07-11T12:58:27.735Z,24.70
2018-07-11T13:00:56.118Z,24.70
2018-07-11T13:03:25.046Z,24.70
2018-07-11T13:05:53.418Z,24.70
2018-07-11T13:08:22.135Z,24.70
2018-07-11T13:10:51.080Z,24.80
2018-07-11T13:13:20.137Z,24.80
2018-07-11T13:15:48.756Z,24.90
2018-07-11T13:18:17.272Z,24.90
2018-07-11T13:20:45.630Z,24.80
2018-07-11T13:23:14.098Z,24.80
2018-07-11T13:25:42.519Z,24.80
2018-07-11T13:28:10.904Z,24.70
2018-07-11T13:30:39.309Z,24.70
2018-07-11T13:33:07.636Z,24.80
2018-07-11T13:35:36.174Z,24.70
2018-07-11T13:38:04.760Z,24.80
2018-07-11T13:40:33.098Z,24.70
2018-07-11T13:43:01.507Z,24.80
2018-07-11T13:48:02.858Z,24.80
2018-07-11T13:50:32.960Z,24.90
2018-07-11T13:53:01.779Z,24.90
2018-07-11T14:00:28.338Z,24.90
2018-07-11T14:02:56.776Z,24.90
2018-07-11T14:05:25.145Z,24.90
2018-07-11T14:07:53.579Z,24.90
2018-07-11T14:10:22.057Z,25.00
2018-07-11T14:12:50.527Z,24.90
2018-07-11T14:15:18.980Z,24.90
2018-07-11T14:17:47.634Z,24.90
2018-07-11T14:20:16.049Z,25.00
2018-07-11T14:22:47.272Z,25.00
2018-07-11T14:25:16.319Z,25.00
2018-07-11T14:27:49.241Z,25.00
2018-07-11T14:30:18.465Z,25.00
2018-07-11T14:32:49.885Z,25.00
2018-07-11T14:35:18.913Z,24.90
2018-07-11T14:37:48.658Z,24.90
2018-07-11T14:40:17.082Z,25.00
2018-07-11T14:42:46.007Z,24.90
2018-07-11T14:45:15.045Z,24.90
2018-07-11T14:47:49.147Z,24.90
2018-07-11T14:50:18.036Z,24.90
2018-07-11T14:52:47.450Z,24.90
2018-07-11T14:55:15.835Z,24.80
2018-07-11T14:57:44.221Z,24.80
2018-07-11T15:00:12.698Z,24.90
2018-07-11T15:02:41.993Z,24.90
2018-07-11T15:05:11.275Z,24.90
2018-07-11T15:07:39.876Z,24.90
2018-07-11T15:10:08.318Z,24.90
2018-07-11T15:12:36.698Z,24.90
2018-07-11T15:15:05.053Z,25.00
2018-07-11T15:17:33.532Z,25.00
2018-07-11T15:20:02.077Z,24.90
2018-07-11T15:22:30.631Z,25.00
2018-07-11T15:24:58.989Z,25.00
2018-07-11T15:27:27.397Z,25.00
2018-07-11T15:29:56.556Z,25.00
2018-07-11T15:32:25.347Z,25.00
2018-07-11T15:34:53.986Z,25.00
2018-07-11T15:37:22.523Z,25.00
2018-07-11T15:39:51.766Z,25.00
2018-07-11T15:44:48.730Z,24.90
2018-07-11T15:47:19.977Z,24.90
2018-07-11T15:49:49.808Z,24.90
2018-07-11T15:52:19.507Z,24.90
2018-07-11T15:54:48.060Z,24.90
2018-07-11T15:58:19.920Z,24.90
2018-07-11T16:00:48.821Z,24.90
2018-07-11T16:03:18.501Z,24.90
2018-07-11T16:05:47.550Z,24.90
2018-07-11T16:08:17.728Z,25.00
2018-07-11T16:10:50.952Z,25.00
2018-07-11T16:13:19.500Z,25.00
2018-07-11T16:15:47.955Z,25.00
2018-07-11T16:18:16.372Z,25.00
2018-07-11T16:20:44.786Z,25.00
2018-07-11T16:23:13.610Z,25.00
2018-07-11T16:25:43.418Z,25.00
2018-07-11T16:28:12.032Z,24.80
2018-07-11T16:30:40.552Z,25.00
2018-07-11T16:33:08.980Z,25.00
2018-07-11T16:35:37.641Z,25.00
2018-07-11T16:38:06.038Z,24.90
2018-07-11T16:40:34.582Z,25.00
2018-07-11T16:43:03.791Z,25.00
2018-07-11T16:45:32.636Z,24.90
2018-07-11T16:48:01.446Z,24.90
2018-07-11T16:50:29.994Z,24.90
2018-07-11T16:52:58.588Z,24.90
2018-07-11T16:55:27.991Z,24.90
2018-07-11T16:57:57.331Z,24.90
2018-07-11T17:00:30.756Z,24.90
2018-07-11T17:03:08.773Z,24.90
2018-07-11T17:05:47.697Z,25.00
2018-07-11T17:08:35.974Z,25.00
2018-07-11T17:11:15.045Z,25.00
2018-07-11T17:13:50.198Z,25.00
2018-07-11T17:16:18.606Z,24.90
2018-07-11T17:18:48.877Z,24.90
2018-07-11T17:21:29.494Z,24.90
2018-07-11T17:24:04.169Z,24.90
2018-07-11T17:26:32.701Z,24.90
2018-07-11T17:29:02.325Z,24.90
2018-07-11T17:31:30.779Z,25.00
2018-07-11T17:33:59.357Z,24.90
2018-07-11T17:36:30.665Z,24.90
2018-07-11T17:38:59.154Z,24.90
2018-07-11T17:41:28.293Z,24.90
2018-07-11T17:43:56.831Z,24.90
2018-07-11T17:46:25.231Z,24.90
2018-07-11T17:49:07.433Z,25.00
2018-07-11T17:51:59.359Z,24.90
2018-07-11T17:54:49.937Z,24.90
2018-07-11T17:57:25.716Z,24.90
2018-07-11T18:00:06.177Z,24.90
2018-07-11T18:03:02.287Z,24.90
2018-07-11T18:06:47.438Z,24.90
2018-07-11T18:09:16.350Z,24.90
2018-07-11T18:11:56.326Z,24.90
2018-07-11T18:15:37.329Z,24.90
2018-07-11T18:18:16.148Z,24.90
2018-07-11T18:23:27.952Z,24.90
2018-07-11T18:26:17.143Z,24.90
2018-07-11T18:28:57.017Z,24.90
2018-07-11T18:32:03.054Z,25.00
2018-07-11T18:35:17.104Z,24.90
2018-07-11T18:37:55.164Z,24.90
2018-07-11T18:40:38.076Z,24.90
2018-07-11T18:43:18.307Z,24.90
2018-07-11T18:48:19.241Z,25.00
2018-07-11T18:51:32.051Z,24.90
2018-07-11T18:54:09.271Z,25.00
2018-07-11T18:57:17.289Z,25.00
2018-07-11T19:00:53.371Z,25.00
2018-07-11T19:03:30.329Z,25.00
2018-07-11T19:06:11.364Z,25.00
2018-07-11T19:08:47.223Z,25.00
2018-07-11T19:11:26.215Z,25.00
2018-07-11T19:14:01.146Z,25.00
2018-07-11T19:17:38.874Z,25.00
2018-07-11T19:20:16.081Z,25.00
2018-07-11T19:23:56.671Z,25.00
2018-07-11T19:26:34.676Z,25.10
2018-07-11T19:32:00.514Z,25.10
2018-07-11T19:35:07.537Z,25.10
2018-07-11T19:37:46.350Z,25.10
2018-07-11T19:41:26.280Z,25.10
2018-07-11T19:44:06.769Z,25.00
2018-07-11T19:46:51.320Z,25.00
2018-07-11T19:49:30.260Z,25.00
2018-07-11T19:54:28.923Z,25.10
2018-07-11T19:56:59.723Z,25.10
2018-07-11T19:59:28.337Z,25.00
2018-07-11T20:01:56.894Z,25.10
2018-07-11T20:04:25.307Z,25.10
2018-07-11T20:06:53.682Z,25.00
2018-07-11T20:09:22.130Z,25.10
2018-07-11T20:11:51.090Z,25.00
2018-07-11T20:14:20.218Z,25.00
2018-07-11T20:16:48.676Z,25.00
2018-07-11T20:19:17.196Z,25.10
2018-07-11T20:21:45.652Z,25.10
2018-07-11T20:24:14.111Z,25.10
2018-07-11T20:26:42.517Z,25.10
2018-07-11T20:29:10.917Z,25.00
2018-07-11T20:31:39.290Z,25.10
2018-07-11T20:34:07.776Z,25.10
2018-07-11T20:36:36.199Z,25.10
2018-07-11T20:39:04.962Z,25.10
2018-07-11T20:41:33.441Z,25.00
2018-07-11T20:44:01.788Z,25.10
2018-07-11T20:46:30.392Z,25.10
2018-07-11T20:48:58.896Z,25.00
2018-07-11T20:51:27.345Z,25.00
2018-07-11T20:53:55.695Z,25.00
2018-07-11T20:56:24.092Z,25.00
2018-07-11T20:59:03.769Z,25.00
2018-07-11T21:09:23.582Z,25.00
2018-07-11T21:14:08.338Z,25.00
2018-07-11T21:16:48.985Z,25.00
2018-07-11T21:19:17.473Z,25.10
2018-07-11T21:21:45.799Z,25.00
2018-07-11T21:24:14.661Z,25.00
2018-07-11T21:26:43.053Z,25.00
2018-07-11T21:29:11.383Z,25.00
2018-07-11T21:31:39.869Z,25.00
2018-07-11T21:34:08.333Z,25.00
2018-07-11T21:36:36.923Z,25.00
2018-07-11T21:39:05.961Z,25.00
2018-07-11T21:41:34.537Z,25.00
2018-07-11T21:44:02.946Z,25.00
2018-07-11T21:46:31.703Z,25.00
2018-07-11T21:49:00.079Z,25.00
2018-07-11T21:51:28.548Z,25.00
2018-07-11T21:53:57.001Z,25.00
2018-07-11T21:56:25.470Z,25.00
2018-07-11T21:58:53.935Z,25.00
2018-07-11T22:01:22.405Z,25.00
2018-07-11T22:03:50.768Z,25.00
2018-07-11T22:06:19.117Z,25.00
2018-07-11T22:08:47.615Z,25.00
2018-07-11T22:11:16.000Z,25.00
2018-07-11T22:13:44.361Z,25.00
2018-07-11T22:16:12.893Z,25.00
2018-07-11T22:18:42.616Z,24.90
2018-07-11T22:21:10.741Z,25.00
2018-07-11T22:23:38.122Z,24.90
2018-07-11T22:26:05.397Z,24.90
2018-07-11T22:28:32.817Z,24.90
2018-07-11T22:31:00.117Z,24.90
2018-07-11T22:33:27.403Z,24.90
2018-07-11T22:35:54.846Z,24.80
2018-07-11T22:38:22.151Z,24.80
2018-07-11T22:43:16.965Z,24.80
2018-07-11T22:48:11.915Z,24.80
2018-07-11T22:50:39.177Z,24.80
2018-07-11T22:53:06.489Z,24.80
2018-07-11T22:55:33.855Z,24.70
2018-07-11T22:58:01.157Z,24.80
2018-07-11T23:00:28.453Z,24.70
2018-07-11T23:02:55.714Z,24.70
2018-07-11T23:07:50.597Z,24.70
2018-07-11T23:10:17.902Z,24.70
2018-07-11T23:12:45.359Z,24.70
2018-07-11T23:15:12.683Z,24.70
2018-07-11T23:17:39.983Z,24.70
2018-07-11T23:20:07.311Z,24.70
2018-07-11T23:22:34.624Z,24.70
2018-07-11T23:25:01.941Z,24.70
2018-07-11T23:27:29.256Z,24.70
2018-07-11T23:29:56.625Z,24.70
2018-07-11T23:32:23.928Z,24.70
2018-07-11T23:34:51.270Z,24.70
2018-07-11T23:37:18.693Z,24.70
2018-07-11T23:39:46.074Z,24.70
2018-07-11T23:42:13.403Z,24.70
2018-07-11T23:44:40.742Z,24.60
2018-07-11T23:49:35.650Z,24.70
2018-07-11T23:52:02.966Z,24.70
2018-07-11T23:54:30.260Z,24.60
2018-07-11T23:56:57.588Z,24.60
2018-07-11T23:59:24.915Z,24.60
